sensor_id;sensor_type;location;lat;lon;timestamp;temperature;humidity
15203;DHT22;7702;51.046;5.184;2023-08-12T00:00:09;21.30;99.90
15203;DHT22;7702;51.046;5.184;2023-08-12T00:02:41;21.30;99.90
15203;DHT22;7702;51.046;5.184;2023-08-12T00:05:08;21.40;99.90
15203;DHT22;7702;51.046;5.184;2023-08-12T00:07:36;21.30;99.90
15203;DHT22;7702;51.046;5.184;2023-08-12T00:10:03;21.40;99.90
15203;DHT22;7702;51.046;5.184;2023-08-12T00:12:33;21.40;99.90
15203;DHT22;7702;51.046;5.184;2023-08-12T00:14:59;21.40;99.90
15203;DHT22;7702;51.046;5.184;2023-08-12T00:17:26;21.40;99.90
15203;DHT22;7702;51.046;5.184;2023-08-12T00:19:52;21.30;99.90
15203;DHT22;7702;51.046;5.184;2023-08-12T00:22:17;21.30;99.90
15203;DHT22;7702;51.046;5.184;2023-08-12T00:24:43;21.30;99.90
15203;DHT22;7702;51.046;5.184;2023-08-12T00:27:10;21.30;99.90
15203;DHT22;7702;51.046;5.184;2023-08-12T00:29:36;21.30;99.90
15203;DHT22;7702;51.046;5.184;2023-08-12T00:32:02;21.20;99.90
15203;DHT22;7702;51.046;5.184;2023-08-12T00:34:27;21.20;99.90
15203;DHT22;7702;51.046;5.184;2023-08-12T00:36:53;21.20;99.90
15203;DHT22;7702;51.046;5.184;2023-08-12T00:39:19;21.20;99.90
15203;DHT22;7702;51.046;5.184;2023-08-12T00:41:45;21.20;99.90
15203;DHT22;7702;51.046;5.184;2023-08-12T00:44:11;21.10;99.90
15203;DHT22;7702;51.046;5.184;2023-08-12T00:46:38;21.10;99.90
15203;DHT22;7702;51.046;5.184;2023-08-12T00:49:06;21.10;99.90
15203;DHT22;7702;51.046;5.184;2023-08-12T00:51:31;21.00;99.90
15203;DHT22;7702;51.046;5.184;2023-08-12T00:53:58;21.00;99.90
15203;DHT22;7702;51.046;5.184;2023-08-12T00:56:26;21.00;99.90
15203;DHT22;7702;51.046;5.184;2023-08-12T00:58:52;21.00;99.90
15203;DHT22;7702;51.046;5.184;2023-08-12T01:01:19;21.00;99.90
15203;DHT22;7702;51.046;5.184;2023-08-12T01:03:45;21.00;99.90
15203;DHT22;7702;51.046;5.184;2023-08-12T01:06:11;20.90;99.90
15203;DHT22;7702;51.046;5.184;2023-08-12T01:08:37;20.90;99.90
15203;DHT22;7702;51.046;5.184;2023-08-12T01:11:21;20.90;99.90
15203;DHT22;7702;51.046;5.184;2023-08-12T01:16:22;20.80;99.90
15203;DHT22;7702;51.046;5.184;2023-08-12T01:18:51;20.80;99.90
15203;DHT22;7702;51.046;5.184;2023-08-12T01:21:17;20.70;99.90
15203;DHT22;7702;51.046;5.184;2023-08-12T01:23:46;20.70;99.90
15203;DHT22;7702;51.046;5.184;2023-08-12T01:26:12;20.70;99.90
15203;DHT22;7702;51.046;5.184;2023-08-12T01:28:38;20.60;99.90
15203;DHT22;7702;51.046;5.184;2023-08-12T01:31:12;20.60;99.90
15203;DHT22;7702;51.046;5.184;2023-08-12T01:33:43;20.50;99.90
15203;DHT22;7702;51.046;5.184;2023-08-12T01:36:19;20.50;99.90
15203;DHT22;7702;51.046;5.184;2023-08-12T01:38:45;20.50;99.90
15203;DHT22;7702;51.046;5.184;2023-08-12T01:41:13;20.50;99.90
15203;DHT22;7702;51.046;5.184;2023-08-12T01:43:40;20.50;99.90
15203;DHT22;7702;51.046;5.184;2023-08-12T01:46:07;20.40;99.90
15203;DHT22;7702;51.046;5.184;2023-08-12T01:48:32;20.30;99.90
15203;DHT22;7702;51.046;5.184;2023-08-12T01:50:58;20.30;99.90
15203;DHT22;7702;51.046;5.184;2023-08-12T01:53:24;20.30;99.90
15203;DHT22;7702;51.046;5.184;2023-08-12T01:55:51;20.30;99.90
15203;DHT22;7702;51.046;5.184;2023-08-12T01:58:17;20.20;99.90
15203;DHT22;7702;51.046;5.184;2023-08-12T02:00:43;20.30;99.90
15203;DHT22;7702;51.046;5.184;2023-08-12T02:03:09;20.30;99.90
15203;DHT22;7702;51.046;5.184;2023-08-12T02:05:35;20.30;99.90
15203;DHT22;7702;51.046;5.184;2023-08-12T02:08:05;20.30;99.90
15203;DHT22;7702;51.046;5.184;2023-08-12T02:10:31;20.30;99.90
15203;DHT22;7702;51.046;5.184;2023-08-12T02:12:56;20.30;99.90
15203;DHT22;7702;51.046;5.184;2023-08-12T02:15:22;20.30;99.90
15203;DHT22;7702;51.046;5.184;2023-08-12T02:17:48;20.30;99.90
15203;DHT22;7702;51.046;5.184;2023-08-12T02:20:14;20.30;99.90
15203;DHT22;7702;51.046;5.184;2023-08-12T02:22:39;20.30;99.90
15203;DHT22;7702;51.046;5.184;2023-08-12T02:25:05;20.30;99.90
15203;DHT22;7702;51.046;5.184;2023-08-12T02:27:31;20.30;99.90
15203;DHT22;7702;51.046;5.184;2023-08-12T02:29:56;20.30;99.90
15203;DHT22;7702;51.046;5.184;2023-08-12T02:32:22;20.30;99.90
15203;DHT22;7702;51.046;5.184;2023-08-12T02:34:47;20.30;99.90
15203;DHT22;7702;51.046;5.184;2023-08-12T02:37:13;20.40;99.90
15203;DHT22;7702;51.046;5.184;2023-08-12T02:39:39;20.40;99.90
15203;DHT22;7702;51.046;5.184;2023-08-12T02:42:05;20.40;99.90
15203;DHT22;7702;51.046;5.184;2023-08-12T02:44:31;20.40;99.90
15203;DHT22;7702;51.046;5.184;2023-08-12T02:46:56;20.40;99.90
15203;DHT22;7702;51.046;5.184;2023-08-12T02:49:22;20.50;99.90
15203;DHT22;7702;51.046;5.184;2023-08-12T02:51:48;20.50;99.90
15203;DHT22;7702;51.046;5.184;2023-08-12T02:54:13;20.50;99.90
15203;DHT22;7702;51.046;5.184;2023-08-12T02:56:39;20.40;99.90
15203;DHT22;7702;51.046;5.184;2023-08-12T02:59:05;20.50;99.90
15203;DHT22;7702;51.046;5.184;2023-08-12T03:01:31;20.40;99.90
15203;DHT22;7702;51.046;5.184;2023-08-12T03:03:58;20.40;99.90
15203;DHT22;7702;51.046;5.184;2023-08-12T03:06:23;20.40;99.90
15203;DHT22;7702;51.046;5.184;2023-08-12T03:08:49;20.40;99.90
15203;DHT22;7702;51.046;5.184;2023-08-12T03:11:15;20.40;99.90
15203;DHT22;7702;51.046;5.184;2023-08-12T03:13:41;20.40;99.90
15203;DHT22;7702;51.046;5.184;2023-08-12T03:16:11;20.40;99.90
15203;DHT22;7702;51.046;5.184;2023-08-12T03:18:38;20.40;99.90
15203;DHT22;7702;51.046;5.184;2023-08-12T03:21:08;20.40;99.90
15203;DHT22;7702;51.046;5.184;2023-08-12T03:23:37;20.40;99.90
15203;DHT22;7702;51.046;5.184;2023-08-12T03:26:04;20.40;99.90
15203;DHT22;7702;51.046;5.184;2023-08-12T03:28:30;20.40;99.90
15203;DHT22;7702;51.046;5.184;2023-08-12T03:30:56;20.40;99.90
15203;DHT22;7702;51.046;5.184;2023-08-12T03:33:22;20.40;99.90
15203;DHT22;7702;51.046;5.184;2023-08-12T03:35:48;20.40;99.90
15203;DHT22;7702;51.046;5.184;2023-08-12T03:38:15;20.40;99.90
15203;DHT22;7702;51.046;5.184;2023-08-12T03:40:41;20.40;99.90
15203;DHT22;7702;51.046;5.184;2023-08-12T03:43:07;20.40;99.90
15203;DHT22;7702;51.046;5.184;2023-08-12T03:45:40;20.50;99.90
15203;DHT22;7702;51.046;5.184;2023-08-12T03:48:07;20.40;99.90
15203;DHT22;7702;51.046;5.184;2023-08-12T03:50:37;20.40;99.90
15203;DHT22;7702;51.046;5.184;2023-08-12T03:53:03;20.50;99.90
15203;DHT22;7702;51.046;5.184;2023-08-12T03:55:35;20.50;99.90
15203;DHT22;7702;51.046;5.184;2023-08-12T03:58:01;20.50;99.90
15203;DHT22;7702;51.046;5.184;2023-08-12T04:00:28;20.40;99.90
15203;DHT22;7702;51.046;5.184;2023-08-12T04:02:54;20.50;99.90
15203;DHT22;7702;51.046;5.184;2023-08-12T04:05:20;20.40;99.90
15203;DHT22;7702;51.046;5.184;2023-08-12T04:07:46;20.40;99.90
15203;DHT22;7702;51.046;5.184;2023-08-12T04:10:11;20.40;99.90
15203;DHT22;7702;51.046;5.184;2023-08-12T04:12:37;20.50;99.90
15203;DHT22;7702;51.046;5.184;2023-08-12T04:15:03;20.50;99.90
15203;DHT22;7702;51.046;5.184;2023-08-12T04:17:31;20.50;99.90
15203;DHT22;7702;51.046;5.184;2023-08-12T04:19:57;20.50;99.90
15203;DHT22;7702;51.046;5.184;2023-08-12T04:22:23;20.40;99.90
15203;DHT22;7702;51.046;5.184;2023-08-12T04:24:49;20.40;99.90
15203;DHT22;7702;51.046;5.184;2023-08-12T04:27:14;20.40;99.90
15203;DHT22;7702;51.046;5.184;2023-08-12T04:29:42;20.40;99.90
15203;DHT22;7702;51.046;5.184;2023-08-12T04:32:08;20.40;99.90
15203;DHT22;7702;51.046;5.184;2023-08-12T04:34:34;20.40;99.90
15203;DHT22;7702;51.046;5.184;2023-08-12T04:36:59;20.40;99.90
15203;DHT22;7702;51.046;5.184;2023-08-12T04:39:25;20.30;99.90
15203;DHT22;7702;51.046;5.184;2023-08-12T04:41:51;20.20;99.90
15203;DHT22;7702;51.046;5.184;2023-08-12T04:44:17;20.20;99.90
15203;DHT22;7702;51.046;5.184;2023-08-12T04:46:42;20.20;99.90
15203;DHT22;7702;51.046;5.184;2023-08-12T04:49:08;20.30;99.90
15203;DHT22;7702;51.046;5.184;2023-08-12T04:51:34;20.20;99.90
15203;DHT22;7702;51.046;5.184;2023-08-12T04:53:59;20.30;99.90
15203;DHT22;7702;51.046;5.184;2023-08-12T04:56:27;20.30;99.90
15203;DHT22;7702;51.046;5.184;2023-08-12T04:58:54;20.30;99.90
15203;DHT22;7702;51.046;5.184;2023-08-12T05:01:20;20.30;99.90
15203;DHT22;7702;51.046;5.184;2023-08-12T05:03:46;20.30;99.90
15203;DHT22;7702;51.046;5.184;2023-08-12T05:06:11;20.30;99.90
15203;DHT22;7702;51.046;5.184;2023-08-12T05:08:37;20.30;99.90
15203;DHT22;7702;51.046;5.184;2023-08-12T05:11:03;20.40;99.90
15203;DHT22;7702;51.046;5.184;2023-08-12T05:13:29;20.40;99.90
15203;DHT22;7702;51.046;5.184;2023-08-12T05:15:55;20.50;99.90
15203;DHT22;7702;51.046;5.184;2023-08-12T05:18:22;20.50;99.90
15203;DHT22;7702;51.046;5.184;2023-08-12T05:20:51;20.50;99.90
15203;DHT22;7702;51.046;5.184;2023-08-12T05:23:17;20.50;99.90
15203;DHT22;7702;51.046;5.184;2023-08-12T05:25:42;20.50;99.90
15203;DHT22;7702;51.046;5.184;2023-08-12T05:28:08;20.50;99.90
15203;DHT22;7702;51.046;5.184;2023-08-12T05:30:34;20.50;99.90
15203;DHT22;7702;51.046;5.184;2023-08-12T05:33:00;20.50;99.90
15203;DHT22;7702;51.046;5.184;2023-08-12T05:35:27;20.50;99.90
15203;DHT22;7702;51.046;5.184;2023-08-12T05:37:52;20.50;99.90
15203;DHT22;7702;51.046;5.184;2023-08-12T05:40:18;20.40;99.90
15203;DHT22;7702;51.046;5.184;2023-08-12T05:42:44;20.40;99.90
15203;DHT22;7702;51.046;5.184;2023-08-12T05:45:10;20.40;99.90
15203;DHT22;7702;51.046;5.184;2023-08-12T05:47:36;20.40;99.90
15203;DHT22;7702;51.046;5.184;2023-08-12T05:50:02;20.40;99.90
15203;DHT22;7702;51.046;5.184;2023-08-12T05:52:27;20.40;99.90
15203;DHT22;7702;51.046;5.184;2023-08-12T05:54:53;20.30;99.90
15203;DHT22;7702;51.046;5.184;2023-08-12T05:57:19;20.30;99.90
15203;DHT22;7702;51.046;5.184;2023-08-12T05:59:45;20.40;99.90
15203;DHT22;7702;51.046;5.184;2023-08-12T06:02:11;20.40;99.90
15203;DHT22;7702;51.046;5.184;2023-08-12T06:04:36;20.40;99.90
15203;DHT22;7702;51.046;5.184;2023-08-12T06:07:02;20.40;99.90
15203;DHT22;7702;51.046;5.184;2023-08-12T06:09:28;20.40;99.90
15203;DHT22;7702;51.046;5.184;2023-08-12T06:11:53;20.40;99.90
15203;DHT22;7702;51.046;5.184;2023-08-12T06:14:19;20.50;99.90
15203;DHT22;7702;51.046;5.184;2023-08-12T06:16:44;20.50;99.90
15203;DHT22;7702;51.046;5.184;2023-08-12T06:19:10;20.50;99.90
15203;DHT22;7702;51.046;5.184;2023-08-12T06:21:36;20.60;99.90
15203;DHT22;7702;51.046;5.184;2023-08-12T06:24:01;20.60;99.90
15203;DHT22;7702;51.046;5.184;2023-08-12T06:26:27;20.50;99.90
15203;DHT22;7702;51.046;5.184;2023-08-12T06:28:53;20.50;99.90
15203;DHT22;7702;51.046;5.184;2023-08-12T06:31:18;20.60;99.90
15203;DHT22;7702;51.046;5.184;2023-08-12T06:33:44;20.50;99.90
15203;DHT22;7702;51.046;5.184;2023-08-12T06:36:10;20.50;99.90
15203;DHT22;7702;51.046;5.184;2023-08-12T06:38:36;20.50;99.90
15203;DHT22;7702;51.046;5.184;2023-08-12T06:41:02;20.60;99.90
15203;DHT22;7702;51.046;5.184;2023-08-12T06:43:28;20.60;99.90
15203;DHT22;7702;51.046;5.184;2023-08-12T06:45:53;20.50;99.90
15203;DHT22;7702;51.046;5.184;2023-08-12T06:48:19;20.50;99.90
15203;DHT22;7702;51.046;5.184;2023-08-12T06:50:44;20.40;99.90
15203;DHT22;7702;51.046;5.184;2023-08-12T06:53:10;20.40;99.90
15203;DHT22;7702;51.046;5.184;2023-08-12T06:55:36;20.40;99.90
15203;DHT22;7702;51.046;5.184;2023-08-12T06:58:02;20.40;99.90
15203;DHT22;7702;51.046;5.184;2023-08-12T07:00:28;20.40;99.90
15203;DHT22;7702;51.046;5.184;2023-08-12T07:02:53;20.40;99.90
15203;DHT22;7702;51.046;5.184;2023-08-12T07:05:19;20.50;99.90
15203;DHT22;7702;51.046;5.184;2023-08-12T07:07:44;20.60;99.90
15203;DHT22;7702;51.046;5.184;2023-08-12T07:10:10;20.60;99.90
15203;DHT22;7702;51.046;5.184;2023-08-12T07:12:36;20.60;99.90
15203;DHT22;7702;51.046;5.184;2023-08-12T07:15:02;20.70;99.90
15203;DHT22;7702;51.046;5.184;2023-08-12T07:17:27;20.70;99.90
15203;DHT22;7702;51.046;5.184;2023-08-12T07:19:53;20.70;99.90
15203;DHT22;7702;51.046;5.184;2023-08-12T07:22:21;20.70;99.90
15203;DHT22;7702;51.046;5.184;2023-08-12T07:24:46;20.60;99.90
15203;DHT22;7702;51.046;5.184;2023-08-12T07:27:12;20.60;99.90
15203;DHT22;7702;51.046;5.184;2023-08-12T07:29:38;20.60;99.90
15203;DHT22;7702;51.046;5.184;2023-08-12T07:32:03;20.70;99.90
15203;DHT22;7702;51.046;5.184;2023-08-12T07:34:29;20.60;99.90
15203;DHT22;7702;51.046;5.184;2023-08-12T07:36:55;20.60;99.90
15203;DHT22;7702;51.046;5.184;2023-08-12T07:39:20;20.70;99.90
15203;DHT22;7702;51.046;5.184;2023-08-12T07:41:46;20.70;99.90
15203;DHT22;7702;51.046;5.184;2023-08-12T07:44:12;20.70;99.90
15203;DHT22;7702;51.046;5.184;2023-08-12T07:46:37;20.70;99.90
15203;DHT22;7702;51.046;5.184;2023-08-12T07:49:03;20.80;99.90
15203;DHT22;7702;51.046;5.184;2023-08-12T07:51:29;20.90;99.90
15203;DHT22;7702;51.046;5.184;2023-08-12T07:53:55;20.90;99.90
15203;DHT22;7702;51.046;5.184;2023-08-12T07:56:21;20.90;99.90
15203;DHT22;7702;51.046;5.184;2023-08-12T07:58:49;20.90;99.90
15203;DHT22;7702;51.046;5.184;2023-08-12T08:01:20;20.90;99.90
15203;DHT22;7702;51.046;5.184;2023-08-12T08:03:50;20.90;99.90
15203;DHT22;7702;51.046;5.184;2023-08-12T08:06:21;21.00;99.90
15203;DHT22;7702;51.046;5.184;2023-08-12T08:08:51;21.10;99.90
15203;DHT22;7702;51.046;5.184;2023-08-12T08:11:23;21.20;99.90
15203;DHT22;7702;51.046;5.184;2023-08-12T08:13:53;21.30;99.90
15203;DHT22;7702;51.046;5.184;2023-08-12T08:16:24;21.40;99.90
15203;DHT22;7702;51.046;5.184;2023-08-12T08:18:54;21.60;99.90
15203;DHT22;7702;51.046;5.184;2023-08-12T08:21:24;21.70;99.90
15203;DHT22;7702;51.046;5.184;2023-08-12T08:23:54;21.70;99.90
15203;DHT22;7702;51.046;5.184;2023-08-12T08:26:25;21.70;99.90
15203;DHT22;7702;51.046;5.184;2023-08-12T08:28:55;21.70;99.90
15203;DHT22;7702;51.046;5.184;2023-08-12T08:31:25;21.80;99.90
15203;DHT22;7702;51.046;5.184;2023-08-12T08:33:55;21.70;99.90
15203;DHT22;7702;51.046;5.184;2023-08-12T08:36:25;21.70;99.90
15203;DHT22;7702;51.046;5.184;2023-08-12T08:38:56;21.80;99.90
15203;DHT22;7702;51.046;5.184;2023-08-12T08:41:25;21.80;99.90
15203;DHT22;7702;51.046;5.184;2023-08-12T08:43:57;21.80;99.90
15203;DHT22;7702;51.046;5.184;2023-08-12T08:46:30;21.90;99.90
15203;DHT22;7702;51.046;5.184;2023-08-12T08:49:01;21.90;99.90
15203;DHT22;7702;51.046;5.184;2023-08-12T08:51:32;22.10;99.90
15203;DHT22;7702;51.046;5.184;2023-08-12T08:53:58;22.30;99.90
15203;DHT22;7702;51.046;5.184;2023-08-12T08:56:25;22.30;99.90
15203;DHT22;7702;51.046;5.184;2023-08-12T08:58:51;22.30;99.90
15203;DHT22;7702;51.046;5.184;2023-08-12T09:01:19;22.20;99.90
15203;DHT22;7702;51.046;5.184;2023-08-12T09:03:48;22.10;99.90
15203;DHT22;7702;51.046;5.184;2023-08-12T09:06:14;22.00;99.90
15203;DHT22;7702;51.046;5.184;2023-08-12T09:08:45;22.00;99.90
15203;DHT22;7702;51.046;5.184;2023-08-12T09:11:12;21.90;99.90
15203;DHT22;7702;51.046;5.184;2023-08-12T09:13:39;21.80;99.90
15203;DHT22;7702;51.046;5.184;2023-08-12T09:16:05;21.70;99.90
15203;DHT22;7702;51.046;5.184;2023-08-12T09:18:31;21.70;99.90
15203;DHT22;7702;51.046;5.184;2023-08-12T09:20:57;21.70;99.90
15203;DHT22;7702;51.046;5.184;2023-08-12T09:23:23;21.30;99.90
15203;DHT22;7702;51.046;5.184;2023-08-12T09:25:48;21.10;99.90
15203;DHT22;7702;51.046;5.184;2023-08-12T09:28:14;21.10;99.90
15203;DHT22;7702;51.046;5.184;2023-08-12T09:30:40;21.10;99.90
15203;DHT22;7702;51.046;5.184;2023-08-12T09:33:07;21.20;99.90
15203;DHT22;7702;51.046;5.184;2023-08-12T09:35:35;21.30;99.90
15203;DHT22;7702;51.046;5.184;2023-08-12T09:38:12;21.50;99.90
15203;DHT22;7702;51.046;5.184;2023-08-12T09:40:41;21.60;99.90
15203;DHT22;7702;51.046;5.184;2023-08-12T09:43:07;21.60;99.90
15203;DHT22;7702;51.046;5.184;2023-08-12T09:45:34;21.50;99.90
15203;DHT22;7702;51.046;5.184;2023-08-12T09:48:00;21.60;99.90
15203;DHT22;7702;51.046;5.184;2023-08-12T09:50:27;21.40;99.90
15203;DHT22;7702;51.046;5.184;2023-08-12T09:52:54;21.00;99.90
15203;DHT22;7702;51.046;5.184;2023-08-12T09:55:21;21.10;99.90
15203;DHT22;7702;51.046;5.184;2023-08-12T09:57:52;21.20;99.90
15203;DHT22;7702;51.046;5.184;2023-08-12T10:00:19;21.40;99.90
15203;DHT22;7702;51.046;5.184;2023-08-12T10:02:47;21.30;99.90
15203;DHT22;7702;51.046;5.184;2023-08-12T10:05:38;21.50;99.90
15203;DHT22;7702;51.046;5.184;2023-08-12T10:08:03;21.70;99.90
15203;DHT22;7702;51.046;5.184;2023-08-12T10:10:32;21.70;99.90
15203;DHT22;7702;51.046;5.184;2023-08-12T10:12:59;21.80;99.90
15203;DHT22;7702;51.046;5.184;2023-08-12T10:15:25;21.70;99.90
15203;DHT22;7702;51.046;5.184;2023-08-12T10:17:52;21.70;99.90
15203;DHT22;7702;51.046;5.184;2023-08-12T10:20:23;21.90;99.90
15203;DHT22;7702;51.046;5.184;2023-08-12T10:22:49;22.40;99.90
15203;DHT22;7702;51.046;5.184;2023-08-12T10:25:15;22.70;99.90
15203;DHT22;7702;51.046;5.184;2023-08-12T10:27:41;22.40;99.90
15203;DHT22;7702;51.046;5.184;2023-08-12T10:30:07;22.10;99.90
15203;DHT22;7702;51.046;5.184;2023-08-12T10:32:34;21.80;99.90
15203;DHT22;7702;51.046;5.184;2023-08-12T10:35:01;21.80;99.90
15203;DHT22;7702;51.046;5.184;2023-08-12T10:37:32;22.00;99.90
15203;DHT22;7702;51.046;5.184;2023-08-12T10:39:58;22.30;99.90
15203;DHT22;7702;51.046;5.184;2023-08-12T10:42:41;22.50;99.90
15203;DHT22;7702;51.046;5.184;2023-08-12T10:45:11;22.90;99.90
15203;DHT22;7702;51.046;5.184;2023-08-12T10:50:19;23.50;99.90
15203;DHT22;7702;51.046;5.184;2023-08-12T10:52:45;23.60;99.90
15203;DHT22;7702;51.046;5.184;2023-08-12T10:55:24;23.60;99.90
15203;DHT22;7702;51.046;5.184;2023-08-12T10:57:51;23.30;99.90
15203;DHT22;7702;51.046;5.184;2023-08-12T11:00:27;22.90;99.90
15203;DHT22;7702;51.046;5.184;2023-08-12T11:02:55;22.90;99.90
15203;DHT22;7702;51.046;5.184;2023-08-12T11:05:22;22.90;99.90
15203;DHT22;7702;51.046;5.184;2023-08-12T11:07:58;22.60;99.90
15203;DHT22;7702;51.046;5.184;2023-08-12T11:10:30;22.40;99.90
15203;DHT22;7702;51.046;5.184;2023-08-12T11:12:58;22.50;99.90
15203;DHT22;7702;51.046;5.184;2023-08-12T11:15:40;22.60;99.90
15203;DHT22;7702;51.046;5.184;2023-08-12T11:18:12;22.90;99.90
15203;DHT22;7702;51.046;5.184;2023-08-12T11:20:38;22.90;99.90
15203;DHT22;7702;51.046;5.184;2023-08-12T11:23:05;22.80;99.90
15203;DHT22;7702;51.046;5.184;2023-08-12T11:25:33;22.70;99.90
15203;DHT22;7702;51.046;5.184;2023-08-12T11:27:59;22.70;99.90
15203;DHT22;7702;51.046;5.184;2023-08-12T11:30:25;22.60;99.90
15203;DHT22;7702;51.046;5.184;2023-08-12T11:32:53;22.40;99.90
15203;DHT22;7702;51.046;5.184;2023-08-12T11:35:20;22.70;99.90
15203;DHT22;7702;51.046;5.184;2023-08-12T11:37:47;23.30;99.90
15203;DHT22;7702;51.046;5.184;2023-08-12T11:40:15;23.70;99.90
15203;DHT22;7702;51.046;5.184;2023-08-12T11:42:44;23.90;99.90
15203;DHT22;7702;51.046;5.184;2023-08-12T11:45:11;24.70;99.90
15203;DHT22;7702;51.046;5.184;2023-08-12T11:47:40;25.10;99.90
15203;DHT22;7702;51.046;5.184;2023-08-12T11:50:08;24.30;99.90
15203;DHT22;7702;51.046;5.184;2023-08-12T11:52:39;23.90;99.90
15203;DHT22;7702;51.046;5.184;2023-08-12T11:55:06;24.30;99.90
15203;DHT22;7702;51.046;5.184;2023-08-12T11:57:33;24.50;99.90
15203;DHT22;7702;51.046;5.184;2023-08-12T12:00:04;24.90;99.90
15203;DHT22;7702;51.046;5.184;2023-08-12T12:02:48;24.30;99.90
15203;DHT22;7702;51.046;5.184;2023-08-12T12:05:15;23.80;99.90
15203;DHT22;7702;51.046;5.184;2023-08-12T12:07:41;23.70;99.90
15203;DHT22;7702;51.046;5.184;2023-08-12T12:10:08;24.10;99.90
15203;DHT22;7702;51.046;5.184;2023-08-12T12:12:36;25.00;99.90
15203;DHT22;7702;51.046;5.184;2023-08-12T12:15:03;25.30;99.90
15203;DHT22;7702;51.046;5.184;2023-08-12T12:17:29;25.90;99.90
15203;DHT22;7702;51.046;5.184;2023-08-12T12:19:59;25.80;99.90
15203;DHT22;7702;51.046;5.184;2023-08-12T12:22:30;26.00;99.90
15203;DHT22;7702;51.046;5.184;2023-08-12T12:24:59;26.60;99.90
15203;DHT22;7702;51.046;5.184;2023-08-12T12:27:26;26.50;99.90
15203;DHT22;7702;51.046;5.184;2023-08-12T12:29:52;26.80;99.90
15203;DHT22;7702;51.046;5.184;2023-08-12T12:32:20;27.00;99.90
15203;DHT22;7702;51.046;5.184;2023-08-12T12:34:46;27.40;99.90
15203;DHT22;7702;51.046;5.184;2023-08-12T12:37:12;27.20;99.90
15203;DHT22;7702;51.046;5.184;2023-08-12T12:39:39;27.90;99.90
15203;DHT22;7702;51.046;5.184;2023-08-12T12:42:05;27.90;99.90
15203;DHT22;7702;51.046;5.184;2023-08-12T12:44:31;27.30;99.90
15203;DHT22;7702;51.046;5.184;2023-08-12T12:46:57;26.70;99.90
15203;DHT22;7702;51.046;5.184;2023-08-12T12:49:23;27.50;99.90
15203;DHT22;7702;51.046;5.184;2023-08-12T12:51:49;27.30;99.90
15203;DHT22;7702;51.046;5.184;2023-08-12T12:54:15;26.80;99.90
15203;DHT22;7702;51.046;5.184;2023-08-12T12:56:41;25.90;99.90
15203;DHT22;7702;51.046;5.184;2023-08-12T12:59:06;25.50;99.90
15203;DHT22;7702;51.046;5.184;2023-08-12T13:01:33;25.00;99.90
15203;DHT22;7702;51.046;5.184;2023-08-12T13:03:58;24.90;99.90
15203;DHT22;7702;51.046;5.184;2023-08-12T13:06:24;25.10;99.90
15203;DHT22;7702;51.046;5.184;2023-08-12T13:08:50;26.00;99.90
15203;DHT22;7702;51.046;5.184;2023-08-12T13:11:15;26.30;99.90
15203;DHT22;7702;51.046;5.184;2023-08-12T13:13:42;26.50;99.90
15203;DHT22;7702;51.046;5.184;2023-08-12T13:16:07;26.40;99.90
15203;DHT22;7702;51.046;5.184;2023-08-12T13:18:34;27.10;99.90
15203;DHT22;7702;51.046;5.184;2023-08-12T13:20:59;28.10;99.90
15203;DHT22;7702;51.046;5.184;2023-08-12T13:23:25;28.70;99.90
15203;DHT22;7702;51.046;5.184;2023-08-12T13:25:52;28.30;99.90
15203;DHT22;7702;51.046;5.184;2023-08-12T13:28:17;28.50;99.90
15203;DHT22;7702;51.046;5.184;2023-08-12T13:30:45;28.40;99.90
15203;DHT22;7702;51.046;5.184;2023-08-12T13:33:10;27.90;99.90
15203;DHT22;7702;51.046;5.184;2023-08-12T13:35:36;28.30;99.90
15203;DHT22;7702;51.046;5.184;2023-08-12T13:38:02;28.50;99.90
15203;DHT22;7702;51.046;5.184;2023-08-12T13:40:27;28.70;99.90
15203;DHT22;7702;51.046;5.184;2023-08-12T13:42:53;28.70;99.90
15203;DHT22;7702;51.046;5.184;2023-08-12T13:45:19;28.20;99.90
15203;DHT22;7702;51.046;5.184;2023-08-12T13:47:45;28.60;99.90
15203;DHT22;7702;51.046;5.184;2023-08-12T13:50:11;29.10;99.70
15203;DHT22;7702;51.046;5.184;2023-08-12T13:52:39;28.20;99.70
15203;DHT22;7702;51.046;5.184;2023-08-12T13:55:05;28.20;99.90
15203;DHT22;7702;51.046;5.184;2023-08-12T13:57:30;28.60;99.40
15203;DHT22;7702;51.046;5.184;2023-08-12T13:59:56;28.20;99.90
15203;DHT22;7702;51.046;5.184;2023-08-12T14:02:22;28.30;99.90
15203;DHT22;7702;51.046;5.184;2023-08-12T14:04:48;28.80;99.30
15203;DHT22;7702;51.046;5.184;2023-08-12T14:07:14;28.80;97.50
15203;DHT22;7702;51.046;5.184;2023-08-12T14:09:41;28.10;99.90
15203;DHT22;7702;51.046;5.184;2023-08-12T14:12:07;27.80;99.70
15203;DHT22;7702;51.046;5.184;2023-08-12T14:14:33;28.70;99.90
15203;DHT22;7702;51.046;5.184;2023-08-12T14:16:58;29.50;98.70
15203;DHT22;7702;51.046;5.184;2023-08-12T14:19:24;30.00;93.20
15203;DHT22;7702;51.046;5.184;2023-08-12T14:21:49;30.30;92.30
15203;DHT22;7702;51.046;5.184;2023-08-12T14:24:15;29.50;91.10
15203;DHT22;7702;51.046;5.184;2023-08-12T14:26:41;29.10;93.20
15203;DHT22;7702;51.046;5.184;2023-08-12T14:29:07;28.60;94.30
15203;DHT22;7702;51.046;5.184;2023-08-12T14:31:34;28.30;95.20
15203;DHT22;7702;51.046;5.184;2023-08-12T14:34:00;29.10;93.70
15203;DHT22;7702;51.046;5.184;2023-08-12T14:36:26;29.70;91.50
15203;DHT22;7702;51.046;5.184;2023-08-12T14:38:52;29.90;89.00
15203;DHT22;7702;51.046;5.184;2023-08-12T14:41:18;29.70;92.00
15203;DHT22;7702;51.046;5.184;2023-08-12T14:43:44;29.10;92.20
15203;DHT22;7702;51.046;5.184;2023-08-12T14:46:09;28.80;90.60
15203;DHT22;7702;51.046;5.184;2023-08-12T14:48:35;28.40;92.90
15203;DHT22;7702;51.046;5.184;2023-08-12T14:51:02;28.10;93.70
15203;DHT22;7702;51.046;5.184;2023-08-12T14:53:28;28.50;94.30
15203;DHT22;7702;51.046;5.184;2023-08-12T14:55:53;27.70;93.50
15203;DHT22;7702;51.046;5.184;2023-08-12T14:58:19;27.50;95.60
15203;DHT22;7702;51.046;5.184;2023-08-12T15:00:46;28.00;94.20
15203;DHT22;7702;51.046;5.184;2023-08-12T15:03:12;28.30;91.80
15203;DHT22;7702;51.046;5.184;2023-08-12T15:05:40;28.40;90.10
15203;DHT22;7702;51.046;5.184;2023-08-12T15:08:06;28.20;90.50
15203;DHT22;7702;51.046;5.184;2023-08-12T15:10:32;29.00;84.60
15203;DHT22;7702;51.046;5.184;2023-08-12T15:12:59;30.00;88.40
15203;DHT22;7702;51.046;5.184;2023-08-12T15:15:24;30.70;85.30
15203;DHT22;7702;51.046;5.184;2023-08-12T15:17:50;29.80;77.00
15203;DHT22;7702;51.046;5.184;2023-08-12T15:20:16;28.10;80.90
15203;DHT22;7702;51.046;5.184;2023-08-12T15:22:42;27.60;89.60
15203;DHT22;7702;51.046;5.184;2023-08-12T15:25:08;27.60;87.90
15203;DHT22;7702;51.046;5.184;2023-08-12T15:27:34;27.50;90.60
15203;DHT22;7702;51.046;5.184;2023-08-12T15:30:00;28.00;90.20
15203;DHT22;7702;51.046;5.184;2023-08-12T15:32:26;28.00;90.00
15203;DHT22;7702;51.046;5.184;2023-08-12T15:34:51;28.10;90.10
15203;DHT22;7702;51.046;5.184;2023-08-12T15:37:18;28.10;90.40
15203;DHT22;7702;51.046;5.184;2023-08-12T15:39:43;28.00;90.80
15203;DHT22;7702;51.046;5.184;2023-08-12T15:42:09;28.00;88.60
15203;DHT22;7702;51.046;5.184;2023-08-12T15:44:35;28.00;91.60
15203;DHT22;7702;51.046;5.184;2023-08-12T15:47:00;28.10;90.40